Time;durP1;ratioP1;P1;durP2;ratioP2;P2;SDS_P1;SDS_P2;PMS_P1;PMS_P2;Temp;Humidity;BMP_temperature;BMP_pressure;BME280_temperature;BME280_humidity;BME280_pressure;Samples;Min_cycle;Max_cycle;Signal;HPM_P1;HPM_P2
2023/01/01 00:02:03;;;;;;;12.07;9.00;;;;;;;;;;5094088;28;20203;-82
2023/01/01 00:04:31;;;;;;;17.67;13.37;;;;;;;;;;5112411;28;20291;-82
2023/01/01 00:06:58;;;;;;;15.13;11.20;;;;;;;;;;5081026;28;20203;-82
2023/01/01 00:12:11;;;;;;;9.57;8.33;;;;;;;;;;5092432;28;20283;-82
2023/01/01 00:14:41;;;;;;;14.97;10.07;;;;;;;;;;5071597;28;20207;-82
2023/01/01 00:17:08;;;;;;;8.63;7.73;;;;;;;;;;5081280;28;20215;-83
2023/01/01 00:19:35;;;;;;;8.60;7.73;;;;;;;;;;5102816;28;20622;-83
2023/01/01 00:22:02;;;;;;;13.40;10.60;;;;;;;;;;5072943;28;20218;-83
2023/01/01 00:24:29;;;;;;;17.03;11.57;;;;;;;;;;5084728;28;20269;-82
2023/01/01 00:26:56;;;;;;;16.63;11.63;;;;;;;;;;5112278;28;20203;-82
2023/01/01 00:29:25;;;;;;;14.83;10.70;;;;;;;;;;5093908;28;20207;-83
2023/01/01 00:31:52;;;;;;;19.93;12.37;;;;;;;;;;5076795;28;20208;-82
2023/01/01 00:34:19;;;;;;;26.60;18.90;;;;;;;;;;5080519;28;20675;-82
2023/01/01 00:36:47;;;;;;;37.53;27.83;;;;;;;;;;5089922;28;20208;-82
2023/01/01 00:39:14;;;;;;;18.43;12.30;;;;;;;;;;5071887;28;20627;-83
2023/01/01 00:41:41;;;;;;;23.17;15.23;;;;;;;;;;5096250;28;20290;-83
2023/01/01 00:44:08;;;;;;;16.70;11.50;;;;;;;;;;5092063;28;20674;-81
2023/01/01 00:46:36;;;;;;;16.93;12.27;;;;;;;;;;5093639;28;20265;-82
2023/01/01 00:49:03;;;;;;;9.97;8.40;;;;;;;;;;5093447;28;20264;-82
2023/01/01 00:51:30;;;;;;;9.97;8.93;;;;;;;;;;5098201;28;20203;-82
2023/01/01 00:53:57;;;;;;;130.83;48.73;;;;;;;;;;5101292;28;20689;-82
2023/01/01 00:56:24;;;;;;;77.60;36.07;;;;;;;;;;5060602;28;20596;-82
2023/01/01 00:58:51;;;;;;;61.40;26.37;;;;;;;;;;5101273;28;20200;-82
2023/01/01 01:01:17;;;;;;;44.73;23.47;;;;;;;;;;5069380;28;20212;-82
2023/01/01 01:03:46;;;;;;;20.40;14.87;;;;;;;;;;5071190;28;20236;-83
2023/01/01 01:06:15;;;;;;;17.30;12.33;;;;;;;;;;5070899;28;20683;-83
2023/01/01 01:08:44;;;;;;;29.60;17.07;;;;;;;;;;5076552;28;20272;-85
2023/01/01 01:11:13;;;;;;;12.43;10.00;;;;;;;;;;5060731;28;20276;-82
2023/01/01 01:13:44;;;;;;;8.97;8.03;;;;;;;;;;5056639;28;20645;-82
2023/01/01 01:16:14;;;;;;;9.40;7.73;;;;;;;;;;5090440;28;20740;-83
2023/01/01 01:18:41;;;;;;;8.77;6.93;;;;;;;;;;5090780;28;20272;-82
2023/01/01 01:21:11;;;;;;;9.57;7.10;;;;;;;;;;5060299;28;20200;-82
2023/01/01 01:23:38;;;;;;;9.30;6.97;;;;;;;;;;5077661;28;20205;-83
2023/01/01 01:26:09;;;;;;;7.97;6.97;;;;;;;;;;5096908;28;20229;-82
2023/01/01 01:28:36;;;;;;;10.30;8.07;;;;;;;;;;5081440;28;20582;-83
2023/01/01 01:31:03;;;;;;;9.13;7.07;;;;;;;;;;5103203;28;20208;-83
2023/01/01 01:33:30;;;;;;;23.23;14.80;;;;;;;;;;5102418;28;20207;-83
2023/01/01 01:35:57;;;;;;;22.73;16.10;;;;;;;;;;5070744;28;20663;-83
2023/01/01 01:38:26;;;;;;;19.67;13.20;;;;;;;;;;5099646;28;20204;-83
2023/01/01 01:40:52;;;;;;;23.37;15.27;;;;;;;;;;5081013;28;20201;-83
2023/01/01 01:43:23;;;;;;;9.97;8.17;;;;;;;;;;5090078;28;20211;-83
2023/01/01 01:45:51;;;;;;;7.97;7.17;;;;;;;;;;5089412;28;20225;-83
2023/01/01 01:48:18;;;;;;;10.03;7.03;;;;;;;;;;5078536;28;20206;-83
2023/01/01 01:50:47;;;;;;;11.67;7.80;;;;;;;;;;5100202;28;20674;-83
2023/01/01 01:53:19;;;;;;;9.53;7.00;;;;;;;;;;5094931;28;20585;-85
2023/01/01 01:55:50;;;;;;;7.57;6.63;;;;;;;;;;5068539;28;20298;-82
2023/01/01 01:58:17;;;;;;;7.77;6.77;;;;;;;;;;5079499;28;20216;-83
2023/01/01 02:00:44;;;;;;;7.67;6.20;;;;;;;;;;5078483;28;20207;-83
2023/01/01 02:03:14;;;;;;;10.27;6.20;;;;;;;;;;5092213;28;20204;-82
2023/01/01 02:05:42;;;;;;;6.47;5.80;;;;;;;;;;5063475;28;20666;-83
2023/01/01 02:08:10;;;;;;;7.40;6.70;;;;;;;;;;5100196;28;20209;-83
2023/01/01 02:10:38;;;;;;;10.77;6.97;;;;;;;;;;5102788;28;20210;-82
2023/01/01 02:13:06;;;;;;;7.77;6.97;;;;;;;;;;5107504;28;20230;-82
2023/01/01 02:15:38;;;;;;;8.70;6.83;;;;;;;;;;5075464;28;20208;-82
2023/01/01 02:18:11;;;;;;;11.53;9.17;;;;;;;;;;5073690;28;20204;-81
2023/01/01 02:20:43;;;;;;;15.13;10.10;;;;;;;;;;5069550;28;20573;-82
2023/01/01 02:23:51;;;;;;;13.37;10.03;;;;;;;;;;5097004;28;20234;-82
2023/01/01 02:26:41;;;;;;;10.70;8.93;;;;;;;;;;5033959;28;20223;-82
2023/01/01 02:29:34;;;;;;;9.60;8.37;;;;;;;;;;5093964;28;20698;-82
2023/01/01 02:32:04;;;;;;;9.77;7.50;;;;;;;;;;5087898;28;20640;-82
2023/01/01 02:34:34;;;;;;;18.90;12.17;;;;;;;;;;5094074;28;20687;-83
2023/01/01 02:37:03;;;;;;;9.67;8.23;;;;;;;;;;5069752;28;20209;-81
2023/01/01 02:39:33;;;;;;;15.60;9.77;;;;;;;;;;5085777;28;20212;-82
2023/01/01 02:42:03;;;;;;;13.63;9.73;;;;;;;;;;5113459;28;20221;-83
2023/01/01 02:44:34;;;;;;;24.43;13.83;;;;;;;;;;5101552;28;20628;-83
2023/01/01 02:47:10;;;;;;;51.37;31.00;;;;;;;;;;5080481;28;20240;-82
2023/01/01 02:49:41;;;;;;;20.07;13.93;;;;;;;;;;5073836;28;20215;-82
2023/01/01 02:52:12;;;;;;;84.23;46.67;;;;;;;;;;5083878;28;20213;-82
2023/01/01 02:54:45;;;;;;;16.83;13.17;;;;;;;;;;5103854;28;20212;-82
2023/01/01 02:57:19;;;;;;;9.67;7.50;;;;;;;;;;5087717;28;20211;-82
2023/01/01 03:02:52;;;;;;;6.53;5.50;;;;;;;;;;5078180;28;20219;-82
2023/01/01 03:05:23;;;;;;;8.70;5.53;;;;;;;;;;5059078;28;20289;-86
2023/01/01 03:08:00;;;;;;;64.80;34.90;;;;;;;;;;5093082;28;20732;-82
2023/01/01 03:10:32;;;;;;;64.77;35.50;;;;;;;;;;5079892;28;20267;-81
2023/01/01 03:13:02;;;;;;;29.33;17.37;;;;;;;;;;5080546;28;20211;-82
2023/01/01 03:15:37;;;;;;;12.37;8.77;;;;;;;;;;5092575;28;20261;-82
2023/01/01 03:18:09;;;;;;;39.03;27.57;;;;;;;;;;5092929;28;20219;-83
2023/01/01 03:20:38;;;;;;;59.03;35.97;;;;;;;;;;5092422;28;20740;-82
2023/01/01 03:23:08;;;;;;;21.30;15.43;;;;;;;;;;5092847;28;20213;-82
2023/01/01 03:25:40;;;;;;;19.57;13.10;;;;;;;;;;5088623;28;20261;-82
2023/01/01 03:28:11;;;;;;;7.90;6.70;;;;;;;;;;5092753;28;20203;-82
2023/01/01 03:30:41;;;;;;;21.17;14.23;;;;;;;;;;5073997;28;20200;-82
2023/01/01 03:33:12;;;;;;;92.73;44.10;;;;;;;;;;5092822;28;20204;-82
2023/01/01 03:35:42;;;;;;;23.77;14.40;;;;;;;;;;5071234;28;20200;-82
2023/01/01 03:38:12;;;;;;;6.57;5.70;;;;;;;;;;5071651;28;20706;-82
2023/01/01 03:40:40;;;;;;;14.47;8.43;;;;;;;;;;5095017;28;20252;-81
2023/01/01 03:43:10;;;;;;;9.10;6.83;;;;;;;;;;5093247;28;20208;-82
2023/01/01 03:45:41;;;;;;;18.50;10.97;;;;;;;;;;5079964;28;20196;-82
2023/01/01 03:48:08;;;;;;;77.93;43.53;;;;;;;;;;5090042;28;20264;-83
2023/01/01 03:50:48;;;;;;;137.40;65.43;;;;;;;;;;5094839;28;20207;-82
2023/01/01 03:53:21;;;;;;;54.33;31.33;;;;;;;;;;5095268;28;20633;-82
2023/01/01 03:55:51;;;;;;;31.90;19.27;;;;;;;;;;5112457;28;20203;-82
2023/01/01 03:58:23;;;;;;;14.37;10.37;;;;;;;;;;5107919;28;20216;-82
2023/01/01 04:00:56;;;;;;;16.80;12.93;;;;;;;;;;5073731;28;20262;-81
2023/01/01 04:03:25;;;;;;;22.70;13.93;;;;;;;;;;5086357;28;20228;-83
2023/01/01 04:05:53;;;;;;;16.27;11.47;;;;;;;;;;5111722;28;20199;-85
2023/01/01 04:08:19;;;;;;;11.47;8.50;;;;;;;;;;5097422;28;20205;-82
2023/01/01 04:10:49;;;;;;;51.17;32.20;;;;;;;;;;5086448;28;20258;-82
2023/01/01 04:13:16;;;;;;;57.97;41.97;;;;;;;;;;5082718;28;20715;-82
2023/01/01 04:15:43;;;;;;;167.83;115.43;;;;;;;;;;5097191;28;20212;-82
2023/01/01 04:18:11;;;;;;;53.03;38.90;;;;;;;;;;5083594;28;20760;-82
2023/01/01 04:20:38;;;;;;;50.47;35.57;;;;;;;;;;5067517;28;20584;-83
2023/01/01 04:23:05;;;;;;;23.60;17.97;;;;;;;;;;5071895;28;20266;-83
2023/01/01 04:25:32;;;;;;;15.80;11.30;;;;;;;;;;5073353;28;20200;-83
2023/01/01 04:28:02;;;;;;;5.97;5.37;;;;;;;;;;5101836;28;20242;-83
2023/01/01 04:30:29;;;;;;;5.60;4.53;;;;;;;;;;5108072;28;20654;-83
2023/01/01 04:32:56;;;;;;;7.27;5.37;;;;;;;;;;5080195;28;20684;-83
2023/01/01 04:35:26;;;;;;;7.20;5.77;;;;;;;;;;5089087;28;20739;-83
2023/01/01 04:37:53;;;;;;;4.50;4.10;;;;;;;;;;5089003;28;20193;-83
2023/01/01 04:40:20;;;;;;;6.33;4.70;;;;;;;;;;5103072;28;20201;-83
2023/01/01 04:42:46;;;;;;;10.47;7.43;;;;;;;;;;5092605;28;20196;-83
2023/01/01 04:45:13;;;;;;;8.43;7.20;;;;;;;;;;5090504;28;20211;-84
2023/01/01 04:47:41;;;;;;;8.97;6.90;;;;;;;;;;5091269;28;20235;-83
2023/01/01 04:50:08;;;;;;;7.43;6.30;;;;;;;;;;5072898;28;20676;-83
2023/01/01 04:52:37;;;;;;;10.20;8.10;;;;;;;;;;5073342;28;20648;-84
2023/01/01 04:55:05;;;;;;;12.03;8.53;;;;;;;;;;5056493;28;20257;-83
2023/01/01 04:57:32;;;;;;;6.03;5.17;;;;;;;;;;5073093;28;20695;-83
2023/01/01 04:59:59;;;;;;;11.20;8.53;;;;;;;;;;5084412;28;20213;-83
2023/01/01 05:02:26;;;;;;;7.07;5.10;;;;;;;;;;5071422;28;20208;-84
2023/01/01 05:04:53;;;;;;;6.43;5.53;;;;;;;;;;5090845;28;20228;-83
2023/01/01 05:07:20;;;;;;;25.57;19.53;;;;;;;;;;5103847;28;20231;-83
2023/01/01 05:09:48;;;;;;;8.20;6.40;;;;;;;;;;5086672;28;20212;-84
2023/01/01 05:12:16;;;;;;;8.00;4.63;;;;;;;;;;5069545;28;20238;-84
2023/01/01 05:14:43;;;;;;;4.43;4.03;;;;;;;;;;5079833;28;20268;-83
2023/01/01 05:17:10;;;;;;;6.10;4.60;;;;;;;;;;5111040;28;20212;-83
2023/01/01 05:19:37;;;;;;;7.10;4.83;;;;;;;;;;5078862;28;20205;-84
2023/01/01 05:22:04;;;;;;;5.20;4.57;;;;;;;;;;5080672;28;20638;-84
2023/01/01 05:24:35;;;;;;;5.70;5.17;;;;;;;;;;5098584;28;20208;-83
2023/01/01 05:27:03;;;;;;;8.30;7.47;;;;;;;;;;5091526;28;20231;-84
2023/01/01 05:29:30;;;;;;;14.53;10.77;;;;;;;;;;5100272;28;20218;-83
2023/01/01 05:31:57;;;;;;;7.93;6.03;;;;;;;;;;5079384;28;20254;-83
2023/01/01 05:34:25;;;;;;;6.40;5.30;;;;;;;;;;5111165;28;20210;-84
2023/01/01 05:36:52;;;;;;;8.67;7.43;;;;;;;;;;5110336;28;20291;-83
2023/01/01 05:39:19;;;;;;;119.67;63.87;;;;;;;;;;5090284;28;20640;-84
2023/01/01 05:41:46;;;;;;;23.20;15.83;;;;;;;;;;5060432;28;20196;-83
2023/01/01 05:44:15;;;;;;;13.07;8.27;;;;;;;;;;5100726;28;20212;-82
2023/01/01 05:46:42;;;;;;;9.50;6.73;;;;;;;;;;5089974;28;20212;-83
2023/01/01 05:49:11;;;;;;;7.90;6.00;;;;;;;;;;5079681;28;20216;-83
2023/01/01 05:51:39;;;;;;;5.77;5.17;;;;;;;;;;5049608;28;20262;-83
2023/01/01 05:54:06;;;;;;;7.53;5.60;;;;;;;;;;5064742;28;20204;-84
2023/01/01 05:56:33;;;;;;;8.30;6.10;;;;;;;;;;5090506;28;20207;-83
2023/01/01 05:59:00;;;;;;;22.93;13.47;;;;;;;;;;5102334;28;20656;-84
2023/01/01 06:01:30;;;;;;;35.30;21.73;;;;;;;;;;5065560;28;20199;-83
2023/01/01 06:03:59;;;;;;;37.77;21.63;;;;;;;;;;5092330;28;20235;-83
2023/01/01 06:06:29;;;;;;;46.97;27.07;;;;;;;;;;5104074;28;20618;-83
2023/01/01 06:08:58;;;;;;;106.77;54.50;;;;;;;;;;5072296;28;20253;-84
2023/01/01 06:11:25;;;;;;;85.30;43.70;;;;;;;;;;5075854;28;20238;-84
2023/01/01 06:13:53;;;;;;;33.37;19.93;;;;;;;;;;5083163;28;20208;-83
2023/01/01 06:16:20;;;;;;;22.37;12.23;;;;;;;;;;5083852;28;20689;-83
2023/01/01 06:18:49;;;;;;;20.77;13.07;;;;;;;;;;5097306;28;20212;-84
2023/01/01 06:21:18;;;;;;;12.50;9.53;;;;;;;;;;5082813;28;20273;-84
2023/01/01 06:23:45;;;;;;;42.83;23.67;;;;;;;;;;5092568;28;20709;-82
2023/01/01 06:26:14;;;;;;;28.50;18.00;;;;;;;;;;5110302;28;20252;-82
2023/01/01 06:28:42;;;;;;;21.97;15.47;;;;;;;;;;5107758;28;20285;-83
2023/01/01 06:31:12;;;;;;;16.80;11.00;;;;;;;;;;5072438;28;20204;-84
2023/01/01 06:33:40;;;;;;;15.00;12.03;;;;;;;;;;5080900;28;20204;-84
2023/01/01 06:36:11;;;;;;;32.47;20.80;;;;;;;;;;5082087;28;20262;-82
2023/01/01 06:38:39;;;;;;;17.10;12.77;;;;;;;;;;5068900;28;20242;-79
2023/01/01 06:41:08;;;;;;;154.53;92.23;;;;;;;;;;5089404;28;20196;-78
2023/01/01 06:43:36;;;;;;;165.60;94.27;;;;;;;;;;5071650;28;20208;-79
2023/01/01 06:46:04;;;;;;;99.77;54.90;;;;;;;;;;5089653;28;20197;-80
2023/01/01 06:48:34;;;;;;;70.70;45.20;;;;;;;;;;5081710;28;20221;-81
2023/01/01 06:51:07;;;;;;;29.17;19.07;;;;;;;;;;5089497;28;20683;-80
2023/01/01 06:53:36;;;;;;;32.17;19.30;;;;;;;;;;5094097;28;20211;-81
2023/01/01 06:56:03;;;;;;;17.40;11.33;;;;;;;;;;5096434;28;20210;-82
2023/01/01 06:58:31;;;;;;;17.30;11.53;;;;;;;;;;5103934;28;20207;-80
2023/01/01 07:01:03;;;;;;;34.93;21.80;;;;;;;;;;5098148;28;20215;-81
2023/01/01 07:03:30;;;;;;;56.83;34.83;;;;;;;;;;5098150;28;20257;-82
2023/01/01 07:05:57;;;;;;;23.03;16.70;;;;;;;;;;5081627;28;20261;-81
2023/01/01 07:08:24;;;;;;;17.33;13.17;;;;;;;;;;5093143;28;20232;-81
2023/01/01 07:10:52;;;;;;;20.87;14.07;;;;;;;;;;5100065;28;20192;-81
2023/01/01 07:13:19;;;;;;;15.73;14.00;;;;;;;;;;5094942;28;20255;-80
2023/01/01 07:15:49;;;;;;;18.03;15.30;;;;;;;;;;5074766;28;20588;-81
2023/01/01 07:18:16;;;;;;;18.57;15.13;;;;;;;;;;5093243;28;20560;-80
2023/01/01 07:20:43;;;;;;;9.90;8.80;;;;;;;;;;5067564;28;20200;-80
2023/01/01 07:23:12;;;;;;;10.27;9.27;;;;;;;;;;5076835;28;20265;-80
2023/01/01 07:25:41;;;;;;;12.67;10.07;;;;;;;;;;5091067;28;20199;-80
2023/01/01 07:28:09;;;;;;;10.43;7.40;;;;;;;;;;5094963;28;20223;-80
2023/01/01 07:30:36;;;;;;;12.90;10.77;;;;;;;;;;5089627;28;20203;-80
2023/01/01 07:33:03;;;;;;;26.40;19.93;;;;;;;;;;5113189;28;20200;-81
2023/01/01 07:35:30;;;;;;;22.93;19.03;;;;;;;;;;5093888;28;20207;-81
2023/01/01 07:37:56;;;;;;;19.83;16.40;;;;;;;;;;5091517;28;20698;-80
2023/01/01 07:40:23;;;;;;;15.13;13.03;;;;;;;;;;5103526;28;20208;-81
2023/01/01 07:42:50;;;;;;;16.27;12.83;;;;;;;;;;5101420;28;20593;-80
2023/01/01 07:45:19;;;;;;;12.67;11.37;;;;;;;;;;5074386;28;20712;-85
2023/01/01 07:47:48;;;;;;;14.40;11.57;;;;;;;;;;5081416;28;20224;-81
2023/01/01 07:50:17;;;;;;;18.33;14.40;;;;;;;;;;5097432;28;20211;-80
2023/01/01 07:52:44;;;;;;;21.40;14.50;;;;;;;;;;5093107;28;20212;-81
2023/01/01 07:55:13;;;;;;;16.53;12.53;;;;;;;;;;5104267;28;20204;-81
2023/01/01 07:57:40;;;;;;;13.73;10.47;;;;;;;;;;5077385;28;20250;-81
2023/01/01 08:00:08;;;;;;;12.17;10.10;;;;;;;;;;5080419;28;20200;-81
2023/01/01 08:02:37;;;;;;;21.80;14.10;;;;;;;;;;5104511;28;20219;-83
2023/01/01 08:05:04;;;;;;;14.67;11.40;;;;;;;;;;5091770;28;20726;-82
2023/01/01 08:07:31;;;;;;;18.30;12.60;;;;;;;;;;5091639;28;20717;-80
2023/01/01 08:09:58;;;;;;;16.23;9.07;;;;;;;;;;5090874;28;20227;-82
2023/01/01 08:12:26;;;;;;;12.87;8.30;;;;;;;;;;5092824;28;20208;-81
2023/01/01 08:14:53;;;;;;;7.03;5.37;;;;;;;;;;5074309;28;20200;-80
2023/01/01 08:17:19;;;;;;;6.40;5.77;;;;;;;;;;5092366;28;20557;-81
2023/01/01 08:19:49;;;;;;;4.90;4.37;;;;;;;;;;5090895;28;20203;-80
2023/01/01 08:22:18;;;;;;;6.77;3.97;;;;;;;;;;5111955;28;20597;-80
2023/01/01 08:24:46;;;;;;;6.27;4.47;;;;;;;;;;5087657;28;20204;-80
2023/01/01 08:27:14;;;;;;;3.80;3.50;;;;;;;;;;5076446;28;20256;-81
2023/01/01 08:29:41;;;;;;;3.27;3.00;;;;;;;;;;5077041;28;20204;-80
2023/01/01 08:32:11;;;;;;;3.67;3.37;;;;;;;;;;5109708;28;20204;-81
2023/01/01 08:34:38;;;;;;;4.47;3.37;;;;;;;;;;5098965;28;20238;-80
2023/01/01 08:37:06;;;;;;;3.20;2.90;;;;;;;;;;5093128;28;20738;-80
2023/01/01 08:39:33;;;;;;;3.37;3.17;;;;;;;;;;5089931;28;20200;-79
2023/01/01 08:42:00;;;;;;;6.53;2.90;;;;;;;;;;5089203;28;20196;-80
2023/01/01 08:44:27;;;;;;;3.10;2.90;;;;;;;;;;5091051;28;20208;-80
2023/01/01 08:46:55;;;;;;;4.10;2.97;;;;;;;;;;5091091;28;20273;-80
2023/01/01 08:49:22;;;;;;;6.73;3.20;;;;;;;;;;5090975;28;20228;-79
2023/01/01 08:51:49;;;;;;;4.50;3.47;;;;;;;;;;5090640;28;20269;-79
2023/01/01 08:54:17;;;;;;;2.80;2.60;;;;;;;;;;5103915;28;20203;-80
2023/01/01 08:56:44;;;;;;;3.33;3.07;;;;;;;;;;5110974;28;20199;-81
2023/01/01 08:59:11;;;;;;;4.03;3.10;;;;;;;;;;5111846;28;20211;-80
2023/01/01 09:01:37;;;;;;;3.17;2.90;;;;;;;;;;5110712;28;20592;-79
2023/01/01 09:04:06;;;;;;;4.73;3.67;;;;;;;;;;5111488;28;20276;-80
2023/01/01 09:06:33;;;;;;;2.90;2.53;;;;;;;;;;5076769;28;20196;-82
2023/01/01 09:09:00;;;;;;;6.70;3.03;;;;;;;;;;5081496;28;20235;-80
2023/01/01 09:11:28;;;;;;;3.33;3.03;;;;;;;;;;5094842;28;20703;-78
2023/01/01 09:13:55;;;;;;;3.63;3.30;;;;;;;;;;5111109;28;20684;-79
2023/01/01 09:16:22;;;;;;;4.07;3.07;;;;;;;;;;5110328;28;20199;-79
2023/01/01 09:18:49;;;;;;;3.90;3.17;;;;;;;;;;5111221;28;20209;-79
2023/01/01 09:21:15;;;;;;;3.53;3.23;;;;;;;;;;5110474;28;20213;-78
2023/01/01 09:23:42;;;;;;;3.47;3.17;;;;;;;;;;5110860;28;20249;-78
2023/01/01 09:26:10;;;;;;;3.90;3.17;;;;;;;;;;5110627;28;20211;-81
2023/01/01 09:28:38;;;;;;;3.50;3.17;;;;;;;;;;5110545;28;20773;-79
2023/01/01 09:31:06;;;;;;;9.87;6.70;;;;;;;;;;5111106;28;20248;-79
2023/01/01 09:33:35;;;;;;;6.20;4.93;;;;;;;;;;5110682;28;20685;-78
2023/01/01 09:36:13;;;;;;;4.83;4.30;;;;;;;;;;5110151;28;20264;-80
2023/01/01 09:38:40;;;;;;;4.73;3.73;;;;;;;;;;5110896;28;20238;-77
2023/01/01 09:41:14;;;;;;;3.63;3.33;;;;;;;;;;5095477;28;20233;-77
2023/01/01 09:43:49;;;;;;;4.63;3.63;;;;;;;;;;5110801;28;20210;-80
2023/01/01 09:46:16;;;;;;;6.40;3.93;;;;;;;;;;5109823;28;20202;-77
2023/01/01 09:48:50;;;;;;;3.80;3.50;;;;;;;;;;5110745;28;20284;-77
2023/01/01 09:51:18;;;;;;;4.47;3.53;;;;;;;;;;5110477;28;20560;-77
2023/01/01 09:53:49;;;;;;;6.17;4.70;;;;;;;;;;5110355;28;20210;-77
2023/01/01 09:56:19;;;;;;;4.73;3.63;;;;;;;;;;5084945;28;20573;-77
2023/01/01 09:58:47;;;;;;;4.70;3.97;;;;;;;;;;5110074;28;20632;-77
2023/01/01 10:01:19;;;;;;;4.00;3.47;;;;;;;;;;5110253;28;20207;-78
2023/01/01 10:03:47;;;;;;;6.27;3.90;;;;;;;;;;5109817;28;20222;-77
2023/01/01 10:06:21;;;;;;;6.03;3.70;;;;;;;;;;5110525;28;20560;-77
2023/01/01 10:09:04;;;;;;;3.70;3.23;;;;;;;;;;5097050;28;20279;-78
2023/01/01 10:11:41;;;;;;;3.30;3.00;;;;;;;;;;5110079;28;20215;-77
2023/01/01 10:14:17;;;;;;;5.87;3.93;;;;;;;;;;5110174;28;20363;-78
2023/01/01 10:16:46;;;;;;;5.07;4.43;;;;;;;;;;5109844;28;20209;-78
2023/01/01 10:19:22;;;;;;;6.03;5.03;;;;;;;;;;5110451;28;20646;-78
2023/01/01 10:21:50;;;;;;;5.73;5.10;;;;;;;;;;5109865;28;20684;-77
2023/01/01 10:24:31;;;;;;;5.53;5.00;;;;;;;;;;5100020;28;20202;-78
2023/01/01 10:26:58;;;;;;;7.63;6.40;;;;;;;;;;5094013;28;20201;-77
2023/01/01 10:29:35;;;;;;;8.33;6.93;;;;;;;;;;5093590;28;20230;-77
2023/01/01 10:32:13;;;;;;;6.77;6.07;;;;;;;;;;5090184;28;20200;-77
2023/01/01 10:34:39;;;;;;;6.37;5.77;;;;;;;;;;5093828;28;20201;-79
2023/01/01 10:37:06;;;;;;;6.93;6.23;;;;;;;;;;5093847;28;20210;-77
2023/01/01 10:39:33;;;;;;;8.23;6.90;;;;;;;;;;5093805;28;20205;-77
2023/01/01 10:42:00;;;;;;;10.57;7.03;;;;;;;;;;5093234;28;20679;-77
2023/01/01 10:44:30;;;;;;;9.13;8.13;;;;;;;;;;5093877;28;20638;-77
2023/01/01 10:46:59;;;;;;;7.83;7.03;;;;;;;;;;5093277;28;20217;-77
2023/01/01 10:49:26;;;;;;;8.37;6.40;;;;;;;;;;5093078;28;20226;-78
2023/01/01 10:51:54;;;;;;;8.83;6.50;;;;;;;;;;5093324;28;20249;-77
2023/01/01 10:54:45;;;;;;;8.23;6.97;;;;;;;;;;5093815;28;20206;-77
2023/01/01 10:57:17;;;;;;;7.57;6.03;;;;;;;;;;5092359;28;20213;-78
2023/01/01 10:59:46;;;;;;;7.93;6.80;;;;;;;;;;5092795;28;20201;-77
2023/01/01 11:02:19;;;;;;;8.00;6.73;;;;;;;;;;5093291;28;20676;-77
2023/01/01 11:04:46;;;;;;;9.10;6.70;;;;;;;;;;5092943;28;20226;-77
2023/01/01 11:07:19;;;;;;;9.03;6.77;;;;;;;;;;5092978;28;20568;-77
2023/01/01 11:09:48;;;;;;;8.87;6.47;;;;;;;;;;5093082;28;20700;-78
2023/01/01 11:12:18;;;;;;;8.47;6.40;;;;;;;;;;5092479;28;20202;-77
2023/01/01 11:14:52;;;;;;;8.37;6.93;;;;;;;;;;5093133;28;20199;-77
2023/01/01 11:17:23;;;;;;;15.50;9.63;;;;;;;;;;5092986;28;20198;-77
2023/01/01 11:19:50;;;;;;;9.83;7.80;;;;;;;;;;5093245;28;20230;-77
2023/01/01 11:22:36;;;;;;;9.77;8.17;;;;;;;;;;5092750;28;20257;-77
2023/01/01 11:25:15;;;;;;;20.70;11.63;;;;;;;;;;5092482;28;20207;-78
2023/01/01 11:27:45;;;;;;;12.07;8.57;;;;;;;;;;5092877;28;20677;-78
2023/01/01 11:30:23;;;;;;;13.87;9.87;;;;;;;;;;5092768;28;20686;-77
2023/01/01 11:32:51;;;;;;;18.77;11.77;;;;;;;;;;5092661;28;20208;-77
2023/01/01 11:35:22;;;;;;;17.77;13.07;;;;;;;;;;5090444;28;20667;-79
2023/01/01 11:37:49;;;;;;;19.70;14.40;;;;;;;;;;5083434;28;20200;-77
2023/01/01 11:40:18;;;;;;;28.67;17.67;;;;;;;;;;5090580;28;20744;-77
2023/01/01 11:42:48;;;;;;;21.73;14.93;;;;;;;;;;5093547;28;20571;-78
2023/01/01 11:45:19;;;;;;;19.37;14.57;;;;;;;;;;5107646;28;20204;-78
2023/01/01 11:47:51;;;;;;;25.23;18.57;;;;;;;;;;5103543;28;20203;-78
2023/01/01 11:50:22;;;;;;;23.47;17.00;;;;;;;;;;5096848;28;20813;-78
2023/01/01 11:52:50;;;;;;;24.93;16.03;;;;;;;;;;5109049;28;20199;-77
2023/01/01 11:55:24;;;;;;;22.60;16.10;;;;;;;;;;5112622;28;20207;-78
2023/01/01 11:57:59;;;;;;;27.80;19.27;;;;;;;;;;5095738;28;20220;-78
2023/01/01 12:00:29;;;;;;;56.07;30.43;;;;;;;;;;5112353;28;20678;-78
2023/01/01 12:03:00;;;;;;;30.30;20.77;;;;;;;;;;5111921;28;20207;-78
2023/01/01 12:05:38;;;;;;;27.40;22.67;;;;;;;;;;5112165;28;20227;-78
2023/01/01 12:08:09;;;;;;;35.13;28.53;;;;;;;;;;5112098;28;20638;-77
2023/01/01 12:10:42;;;;;;;34.57;22.30;;;;;;;;;;5111769;28;20219;-78
2023/01/01 12:13:15;;;;;;;26.50;19.77;;;;;;;;;;5112229;28;20256;-78
2023/01/01 12:15:48;;;;;;;32.30;21.47;;;;;;;;;;5112212;28;20195;-77
2023/01/01 12:18:22;;;;;;;20.87;16.80;;;;;;;;;;5112718;28;20207;-79
2023/01/01 12:20:52;;;;;;;20.73;15.03;;;;;;;;;;5106740;28;20203;-78
2023/01/01 12:23:19;;;;;;;36.00;23.47;;;;;;;;;;5103665;28;21003;-78
2023/01/01 12:26:01;;;;;;;66.60;44.87;;;;;;;;;;5110980;28;20195;-78
2023/01/01 12:28:36;;;;;;;38.57;25.77;;;;;;;;;;5111526;28;20294;-78
2023/01/01 12:31:08;;;;;;;63.00;39.27;;;;;;;;;;5111801;28;20203;-78
2023/01/01 12:33:57;;;;;;;35.77;23.13;;;;;;;;;;5110948;28;20218;-78
2023/01/01 12:36:31;;;;;;;18.20;13.27;;;;;;;;;;5112182;28;20260;-78
2023/01/01 12:39:31;;;;;;;23.00;19.13;;;;;;;;;;5111728;28;20282;-78
2023/01/01 12:42:02;;;;;;;11.83;9.70;;;;;;;;;;5111043;28;20203;-78
2023/01/01 12:44:38;;;;;;;14.70;13.23;;;;;;;;;;5101062;28;20618;-77
2023/01/01 12:47:14;;;;;;;13.43;9.50;;;;;;;;;;5077779;28;20627;-78
2023/01/01 12:49:53;;;;;;;12.07;10.40;;;;;;;;;;5089964;28;20232;-78
2023/01/01 12:52:35;;;;;;;9.70;8.73;;;;;;;;;;5080775;28;20200;-78
2023/01/01 12:55:25;;;;;;;8.93;7.87;;;;;;;;;;5091029;28;20291;-78
2023/01/01 12:57:56;;;;;;;10.97;9.90;;;;;;;;;;5090729;28;20200;-78
2023/01/01 13:00:23;;;;;;;11.63;9.63;;;;;;;;;;5101706;28;20204;-78
2023/01/01 13:02:52;;;;;;;11.43;9.00;;;;;;;;;;5111633;28;20648;-77
2023/01/01 13:05:23;;;;;;;10.27;8.93;;;;;;;;;;5111475;28;20235;-77
2023/01/01 13:07:52;;;;;;;8.77;7.87;;;;;;;;;;5097492;28;20195;-78
2023/01/01 13:10:25;;;;;;;28.60;19.03;;;;;;;;;;5110814;28;20259;-78
2023/01/01 13:12:53;;;;;;;12.13;10.37;;;;;;;;;;5097214;28;20196;-78
2023/01/01 13:15:43;;;;;;;10.40;8.90;;;;;;;;;;5077538;28;20209;-78
2023/01/01 13:18:22;;;;;;;9.67;8.40;;;;;;;;;;5109156;28;20203;-78
2023/01/01 13:21:01;;;;;;;12.87;11.27;;;;;;;;;;5095070;28;20199;-78
2023/01/01 13:23:50;;;;;;;12.20;10.20;;;;;;;;;;5103556;28;20231;-78
2023/01/01 13:26:36;;;;;;;21.67;14.30;;;;;;;;;;5090495;28;20215;-79
2023/01/01 13:29:32;;;;;;;32.73;23.07;;;;;;;;;;5090104;28;20313;-78
2023/01/01 13:32:10;;;;;;;24.47;15.50;;;;;;;;;;5087341;28;20224;-78
2023/01/01 13:34:45;;;;;;;17.80;14.17;;;;;;;;;;5089874;28;20200;-78
2023/01/01 13:37:43;;;;;;;14.20;10.20;;;;;;;;;;5103232;28;20670;-78
2023/01/01 13:40:57;;;;;;;11.13;9.37;;;;;;;;;;5018373;28;20614;-78
2023/01/01 13:43:28;;;;;;;15.07;11.43;;;;;;;;;;5023256;28;20210;-78
2023/01/01 13:45:55;;;;;;;12.40;11.17;;;;;;;;;;5103363;28;20196;-78
2023/01/01 13:48:38;;;;;;;12.77;10.43;;;;;;;;;;5105489;28;20192;-78
2023/01/01 13:51:18;;;;;;;26.87;20.40;;;;;;;;;;5084946;28;20237;-79
2023/01/01 13:54:00;;;;;;;18.80;13.53;;;;;;;;;;5090790;28;20204;-78
2023/01/01 13:56:37;;;;;;;23.20;16.73;;;;;;;;;;5090327;28;20237;-78
2023/01/01 13:59:29;;;;;;;10.97;9.77;;;;;;;;;;5090708;28;20750;-79
2023/01/01 14:02:01;;;;;;;13.30;9.47;;;;;;;;;;5083984;28;20256;-78
2023/01/01 14:04:32;;;;;;;28.10;20.93;;;;;;;;;;5094236;28;20220;-78
2023/01/01 14:07:01;;;;;;;22.70;17.20;;;;;;;;;;5094521;28;20196;-78
2023/01/01 14:09:29;;;;;;;14.30;11.30;;;;;;;;;;5089232;28;20224;-78
2023/01/01 14:11:56;;;;;;;20.17;14.47;;;;;;;;;;5103928;28;20205;-77
2023/01/01 14:14:27;;;;;;;10.33;9.10;;;;;;;;;;5094129;28;20645;-78
2023/01/01 14:16:56;;;;;;;12.83;11.43;;;;;;;;;;5086585;28;20208;-78
2023/01/01 14:19:24;;;;;;;13.40;11.60;;;;;;;;;;5095057;28;20212;-78
2023/01/01 14:21:51;;;;;;;11.50;9.97;;;;;;;;;;5093888;28;20206;-79
2023/01/01 14:24:20;;;;;;;19.67;15.00;;;;;;;;;;5080848;28;20243;-78
2023/01/01 14:26:48;;;;;;;16.03;11.07;;;;;;;;;;5094533;28;20642;-78
2023/01/01 14:29:20;;;;;;;41.63;25.97;;;;;;;;;;5112529;28;20204;-79
2023/01/01 14:31:48;;;;;;;29.30;19.93;;;;;;;;;;5108292;28;20260;-78
2023/01/01 14:34:16;;;;;;;20.90;16.87;;;;;;;;;;5102050;28;20204;-78
2023/01/01 14:36:50;;;;;;;21.23;15.77;;;;;;;;;;5101242;28;20212;-78
2023/01/01 14:39:26;;;;;;;30.73;21.57;;;;;;;;;;5114452;28;20221;-79
2023/01/01 14:41:55;;;;;;;42.07;29.23;;;;;;;;;;5103757;28;20241;-78
2023/01/01 14:44:33;;;;;;;46.63;30.27;;;;;;;;;;5094326;28;20259;-79
2023/01/01 14:47:00;;;;;;;37.60;26.27;;;;;;;;;;5093894;28;20200;-79
2023/01/01 14:49:29;;;;;;;33.67;25.70;;;;;;;;;;5107819;28;20736;-78
2023/01/01 14:51:57;;;;;;;24.90;20.53;;;;;;;;;;5113778;28;20199;-78
2023/01/01 14:54:27;;;;;;;35.17;28.60;;;;;;;;;;5112464;28;20692;-79